Estación de Morza

Ultimos registro cada 15 minutos 68
Estación Fecha / Hora Temperatura Humedad Lluvia Velocidad Dirección Radiación Presion
68 Morza 10-05-2026 16:45 20,8 56 0 0,4 261 93 1011,9
67 Morza 10-05-2026 16:30 20,8 57 0 0,9 255 137 1011,8
66 Morza 10-05-2026 16:15 20,9 57 0 0,4 272 181 1011,9
65 Morza 10-05-2026 16:00 21,3 57 0 0 253 220 1011,8
64 Morza 10-05-2026 15:45 21,4 55 0 0,9 280 253 1011,8
63 Morza 10-05-2026 15:30 21,1 56 0 0,4 260 290 1011,8
62 Morza 10-05-2026 15:15 20,9 56 0 0,4 276 316 1011,7
61 Morza 10-05-2026 15:00 20,8 60 0 1,8 280 346 1011,7
60 Morza 10-05-2026 14:45 20,2 58 0 0,4 284 373 1011,8
59 Morza 10-05-2026 14:30 20 60 0 0,9 274 397 1011,8
58 Morza 10-05-2026 14:15 19,7 60 0 0,4 243 418 1012
57 Morza 10-05-2026 14:00 19,7 59 0 0,4 284 438 1012,1
56 Morza 10-05-2026 13:45 19 63 0 0,9 290 454 1012,2
55 Morza 10-05-2026 13:30 18,3 63 0 0,4 303 466 1012,3
54 Morza 10-05-2026 13:15 17,6 66 0 0 289 475 1012,5
53 Morza 10-05-2026 13:00 16,9 68 0 0,9 282 482 1012,8
52 Morza 10-05-2026 12:45 16,3 71 0 0 292 485 1013,2
51 Morza 10-05-2026 12:30 15,7 73 0 1,3 247 485 1013,4
50 Morza 10-05-2026 12:15 15,1 73 0 2,7 298 482 1013,3
49 Morza 10-05-2026 12:00 14,2 75 0 0,4 304 475 1013,4
48 Morza 10-05-2026 11:45 13,6 77 0 0,9 281 468 1013,6
47 Morza 10-05-2026 11:30 12,6 81 0 0,9 318 454 1013,9
46 Morza 10-05-2026 11:15 11,7 88 0 0 101 438 1014,1
45 Morza 10-05-2026 11:00 11,2 93 0 0 321 418 1014,4
44 Morza 10-05-2026 10:45 10,3 97 0 0,4 8 399 1014,4
43 Morza 10-05-2026 10:30 9,2 97 0 0,9 319 374 1014,5
42 Morza 10-05-2026 10:15 8,1 97 0 0,4 49 336 1014,6
41 Morza 10-05-2026 10:00 7,4 97 0 0,4 51 318 1014,6
40 Morza 10-05-2026 09:45 6,5 97 0 0,4 38 236 1014,6
39 Morza 10-05-2026 09:30 5,7 97 0 0 73 225 1014,7
38 Morza 10-05-2026 09:15 4,8 97 0 0 129 142 1014,5
37 Morza 10-05-2026 09:00 3,5 97 0 0 357 134 1014,2
36 Morza 10-05-2026 08:45 1,9 97 0 0 357 91 1013,6
35 Morza 10-05-2026 08:30 1,1 96 0 0 357 70 1013,5
34 Morza 10-05-2026 08:15 0,6 96 0 0 357 58 1013,4
33 Morza 10-05-2026 08:00 0,4 96 0 0 357 37 1013,4
32 Morza 10-05-2026 07:45 0,3 96 0 0 357 7 1013,5
31 Morza 10-05-2026 07:30 0,1 95 0 0 357 0 1013,6
30 Morza 10-05-2026 07:15 0,2 95 0 0 357 0 1013,6
29 Morza 10-05-2026 07:00 0,2 94 0 0 355 0 1013,6
28 Morza 10-05-2026 06:45 0,9 95 0 0 305 0 1013,4
27 Morza 10-05-2026 06:30 0,9 95 0 0 306 0 1013,4
26 Morza 10-05-2026 06:15 0,7 95 0 0 303 0 1013,2
25 Morza 10-05-2026 06:00 0,7 95 0 0,4 53 0 1013,1
24 Morza 10-05-2026 05:45 0,7 95 0 0 50 0 1013,2
23 Morza 10-05-2026 05:30 0,6 94 0 0 46 0 1013
22 Morza 10-05-2026 05:15 1,4 95 0 0 242 0 1012,8
21 Morza 10-05-2026 05:00 1,7 95 0 0 242 0 1012,8
20 Morza 10-05-2026 04:45 1,6 95 0 0 242 0 1013
19 Morza 10-05-2026 04:30 1,5 94 0 0 242 0 1012,9
18 Morza 10-05-2026 04:15 1,7 94 0 0,4 242 0 1013
17 Morza 10-05-2026 04:00 1,9 95 0 0,4 242 0 1013,1
16 Morza 10-05-2026 03:45 2,1 95 0 0 242 0 1013,2
15 Morza 10-05-2026 03:30 2,1 94 0 0 242 0 1013,1
14 Morza 10-05-2026 03:15 2,3 94 0 0 242 0 1013,4
13 Morza 10-05-2026 03:00 2,3 94 0 0,4 251 0 1013,3
12 Morza 10-05-2026 02:45 2,8 94 0 0 209 0 1013,4
11 Morza 10-05-2026 02:30 3 94 0 0,4 209 0 1013,6
10 Morza 10-05-2026 02:15 3,2 94 0 0 209 0 1013,8
9 Morza 10-05-2026 02:00 3,3 94 0 0 209 0 1014,3
8 Morza 10-05-2026 01:45 3,3 94 0 0 209 0 1014,2
7 Morza 10-05-2026 01:30 3,6 94 0 0 209 0 1014,1
6 Morza 10-05-2026 01:15 3,8 94 0 0 199 0 1014,2
5 Morza 10-05-2026 01:00 3,8 94 0,2 0 223 0 1014,2
4 Morza 10-05-2026 00:45 3,8 94 0 0 223 0 1014,3
3 Morza 10-05-2026 00:30 3,9 94 0 0,4 240 0 1014,3
2 Morza 10-05-2026 00:15 3,9 93 0 0 277 0 1014,4
1 Morza 10-05-2026 00:00 4,3 93 0 0 172 0 1014,4